Main page
METAR-TAF:

METAR-TAF

Airports :

Birmingham Airport

Birmingham, England

latitude: 52-27N, longitude: 001-44W, elevation: 99 m

Current weather observation

The report was made 29 minutes ago, at 22:50 UTC
Wind 5 kt from the Southeast
Temperature 13°C
Humidity 67%
Pressure 1002 hPa
Visibility 10 km or more
no clouds below 1500 m and no cumulonimbus

METAR: EGBB 222250Z 14005KT CAVOK 13/07 Q1002

Time: 00:19 (23:19 UTC)

Forecast

The report was made 6 hours and 26 minutes ago, at 16:53 UTC
Forecast valid from 22 at 18 UTC to 23 at 18 UTC
Wind 10 kt from the Southeast
Visibility 10 km or more
no clouds below 1500 m and no cumulonimbus
Becoming
from 22 at 22 UTC to 23 at 01 UTC
Wind 7 kt from the East/Northeast
Probability 30% :
Temporary
from 23 at 00 UTC to 23 at 07 UTC
Visibility: 8000 m

TAF: EGBB 221653Z 2218/2318 13010KT CAVOK BECMG 2222/2301 07007KT PROB30 TEMPO 2300/2307 8000

Weather observations and forecasts of more than 4000 airports (METAR and TAF reports).

The available stations are represented by yellow and red dots on the map.

Hover mouse over dot to see the name of the station.

Then click to see weather observations and forecasts.

To change the map : click on the green buttons with a black cross to zoom in, on the green button with a dash to zoom out, or on the green arrows for adjacent maps.


METAR-TAF: